sensor_id;sensor_type;location;lat;lon;timestamp;pressure;altitude;pressure_sealevel;temperature;humidity
17635;BME280;8936;49.010;12.120;2023-01-30T00:00:28;98461.25;;;1.91;100.00
17635;BME280;8936;49.010;12.120;2023-01-30T00:02:56;98449.13;;;1.96;100.00
17635;BME280;8936;49.010;12.120;2023-01-30T00:05:22;98448.25;;;1.89;100.00
17635;BME280;8936;49.010;12.120;2023-01-30T00:07:48;98449.97;;;2.03;100.00
17635;BME280;8936;49.010;12.120;2023-01-30T00:10:15;98452.59;;;2.03;100.00
17635;BME280;8936;49.010;12.120;2023-01-30T00:12:41;98453.38;;;1.97;100.00
17635;BME280;8936;49.010;12.120;2023-01-30T00:15:09;98449.72;;;1.92;100.00
17635;BME280;8936;49.010;12.120;2023-01-30T00:17:35;98451.09;;;1.88;100.00
17635;BME280;8936;49.010;12.120;2023-01-30T00:20:03;98441.44;;;1.95;100.00
17635;BME280;8936;49.010;12.120;2023-01-30T00:22:30;98431.84;;;1.87;100.00
17635;BME280;8936;49.010;12.120;2023-01-30T00:24:56;98428.59;;;1.85;100.00
17635;BME280;8936;49.010;12.120;2023-01-30T00:27:23;98424.72;;;1.81;100.00
17635;BME280;8936;49.010;12.120;2023-01-30T00:29:49;98427.84;;;1.91;100.00
17635;BME280;8936;49.010;12.120;2023-01-30T00:32:15;98426.19;;;1.90;100.00
17635;BME280;8936;49.010;12.120;2023-01-30T00:34:42;98425.06;;;2.06;100.00
17635;BME280;8936;49.010;12.120;2023-01-30T00:37:10;98414.69;;;2.04;100.00
17635;BME280;8936;49.010;12.120;2023-01-30T00:39:39;98409.63;;;2.03;100.00
17635;BME280;8936;49.010;12.120;2023-01-30T00:42:06;98409.97;;;1.87;100.00
17635;BME280;8936;49.010;12.120;2023-01-30T00:44:49;98405.06;;;1.77;100.00
17635;BME280;8936;49.010;12.120;2023-01-30T00:47:33;98414.00;;;1.83;100.00
17635;BME280;8936;49.010;12.120;2023-01-30T00:50:00;98407.69;;;1.77;100.00
17635;BME280;8936;49.010;12.120;2023-01-30T00:52:28;98394.53;;;1.77;100.00
17635;BME280;8936;49.010;12.120;2023-01-30T00:54:54;98389.19;;;1.64;100.00
17635;BME280;8936;49.010;12.120;2023-01-30T00:57:20;98382.16;;;1.78;100.00
17635;BME280;8936;49.010;12.120;2023-01-30T00:59:47;98381.19;;;1.79;100.00
17635;BME280;8936;49.010;12.120;2023-01-30T01:02:13;98387.81;;;1.75;100.00
17635;BME280;8936;49.010;12.120;2023-01-30T01:04:40;98377.13;;;1.76;100.00
17635;BME280;8936;49.010;12.120;2023-01-30T01:07:08;98365.78;;;1.76;100.00
17635;BME280;8936;49.010;12.120;2023-01-30T01:09:36;98363.50;;;1.66;100.00
17635;BME280;8936;49.010;12.120;2023-01-30T01:12:02;98358.50;;;1.84;100.00
17635;BME280;8936;49.010;12.120;2023-01-30T01:14:29;98356.66;;;1.78;100.00
17635;BME280;8936;49.010;12.120;2023-01-30T01:16:55;98361.72;;;1.80;100.00
17635;BME280;8936;49.010;12.120;2023-01-30T01:19:22;98351.59;;;1.83;100.00
17635;BME280;8936;49.010;12.120;2023-01-30T01:21:49;98342.22;;;1.68;100.00
17635;BME280;8936;49.010;12.120;2023-01-30T01:24:15;98358.44;;;1.71;100.00
17635;BME280;8936;49.010;12.120;2023-01-30T01:26:43;98359.13;;;1.86;100.00
17635;BME280;8936;49.010;12.120;2023-01-30T01:29:10;98352.34;;;1.71;100.00
17635;BME280;8936;49.010;12.120;2023-01-30T01:31:37;98361.44;;;1.61;100.00
17635;BME280;8936;49.010;12.120;2023-01-30T01:34:03;98351.94;;;1.60;100.00
17635;BME280;8936;49.010;12.120;2023-01-30T01:36:30;98364.91;;;1.69;100.00
17635;BME280;8936;49.010;12.120;2023-01-30T01:38:56;98354.22;;;1.77;100.00
17635;BME280;8936;49.010;12.120;2023-01-30T01:41:23;98358.94;;;1.88;100.00
17635;BME280;8936;49.010;12.120;2023-01-30T01:44:00;98363.78;;;1.84;100.00
17635;BME280;8936;49.010;12.120;2023-01-30T01:46:27;98369.50;;;1.94;100.00
17635;BME280;8936;49.010;12.120;2023-01-30T01:48:56;98381.22;;;1.85;100.00
17635;BME280;8936;49.010;12.120;2023-01-30T01:51:25;98377.75;;;1.85;100.00
17635;BME280;8936;49.010;12.120;2023-01-30T01:53:56;98386.47;;;1.85;100.00
17635;BME280;8936;49.010;12.120;2023-01-30T01:56:23;98404.28;;;1.83;100.00
17635;BME280;8936;49.010;12.120;2023-01-30T01:58:51;98422.31;;;1.86;100.00
17635;BME280;8936;49.010;12.120;2023-01-30T02:01:22;98418.25;;;1.84;100.00
17635;BME280;8936;49.010;12.120;2023-01-30T02:03:49;98414.50;;;1.65;100.00
17635;BME280;8936;49.010;12.120;2023-01-30T02:06:17;98398.78;;;1.78;100.00
17635;BME280;8936;49.010;12.120;2023-01-30T02:08:44;98409.88;;;1.74;100.00
17635;BME280;8936;49.010;12.120;2023-01-30T02:11:13;98396.50;;;1.69;100.00
17635;BME280;8936;49.010;12.120;2023-01-30T02:13:43;98384.38;;;1.74;100.00
17635;BME280;8936;49.010;12.120;2023-01-30T02:16:09;98374.88;;;1.73;100.00
17635;BME280;8936;49.010;12.120;2023-01-30T02:18:38;98373.47;;;1.77;100.00
17635;BME280;8936;49.010;12.120;2023-01-30T02:21:21;98372.63;;;1.70;100.00
17635;BME280;8936;49.010;12.120;2023-01-30T05:31:01;98154.22;;;1.29;100.00
17635;BME280;8936;49.010;12.120;2023-01-30T05:33:31;98163.13;;;1.28;100.00
17635;BME280;8936;49.010;12.120;2023-01-30T05:35:58;98173.25;;;1.38;100.00
17635;BME280;8936;49.010;12.120;2023-01-30T05:38:25;98165.38;;;1.38;100.00
17635;BME280;8936;49.010;12.120;2023-01-30T05:40:58;98178.13;;;1.41;100.00
17635;BME280;8936;49.010;12.120;2023-01-30T05:57:15;98153.00;;;1.25;100.00
17635;BME280;8936;49.010;12.120;2023-01-30T05:59:42;98161.28;;;1.22;100.00
17635;BME280;8936;49.010;12.120;2023-01-30T06:02:12;98146.13;;;1.31;100.00
17635;BME280;8936;49.010;12.120;2023-01-30T06:04:39;98153.44;;;1.42;100.00
17635;BME280;8936;49.010;12.120;2023-01-30T06:07:08;98144.69;;;1.28;100.00
17635;BME280;8936;49.010;12.120;2023-01-30T06:12:44;98142.06;;;1.28;100.00
17635;BME280;8936;49.010;12.120;2023-01-30T06:15:14;98140.69;;;1.39;100.00
17635;BME280;8936;49.010;12.120;2023-01-30T06:17:41;98138.69;;;1.47;100.00
17635;BME280;8936;49.010;12.120;2023-01-30T06:20:11;98148.59;;;1.39;100.00
17635;BME280;8936;49.010;12.120;2023-01-30T06:22:38;98127.72;;;1.37;100.00
17635;BME280;8936;49.010;12.120;2023-01-30T06:25:05;98134.78;;;1.24;100.00
17635;BME280;8936;49.010;12.120;2023-01-30T06:27:33;98128.47;;;1.18;100.00
17635;BME280;8936;49.010;12.120;2023-01-30T06:30:02;98116.13;;;1.19;100.00
17635;BME280;8936;49.010;12.120;2023-01-30T06:32:32;98109.84;;;1.13;100.00
17635;BME280;8936;49.010;12.120;2023-01-30T06:34:58;98097.13;;;1.17;100.00
17635;BME280;8936;49.010;12.120;2023-01-30T06:37:27;98113.75;;;1.24;100.00
17635;BME280;8936;49.010;12.120;2023-01-30T06:39:57;98118.22;;;1.30;100.00
17635;BME280;8936;49.010;12.120;2023-01-30T06:42:37;98112.94;;;1.23;100.00
17635;BME280;8936;49.010;12.120;2023-01-30T06:45:06;98118.16;;;1.17;100.00
17635;BME280;8936;49.010;12.120;2023-01-30T06:47:33;98118.19;;;1.23;100.00
17635;BME280;8936;49.010;12.120;2023-01-30T07:00:17;98112.47;;;1.13;100.00
17635;BME280;8936;49.010;12.120;2023-01-30T07:02:45;98116.56;;;1.22;100.00
17635;BME280;8936;49.010;12.120;2023-01-30T07:05:12;98113.75;;;1.24;100.00
17635;BME280;8936;49.010;12.120;2023-01-30T07:07:39;98119.38;;;1.27;100.00
17635;BME280;8936;49.010;12.120;2023-01-30T07:10:09;98114.75;;;1.23;100.00
17635;BME280;8936;49.010;12.120;2023-01-30T07:12:36;98112.03;;;1.03;100.00
17635;BME280;8936;49.010;12.120;2023-01-30T07:15:03;98106.81;;;1.09;100.00
17635;BME280;8936;49.010;12.120;2023-01-30T07:17:32;98118.16;;;1.17;100.00
17635;BME280;8936;49.010;12.120;2023-01-30T07:19:59;98116.34;;;1.17;100.00
17635;BME280;8936;49.010;12.120;2023-01-30T07:22:29;98112.53;;;1.26;100.00
17635;BME280;8936;49.010;12.120;2023-01-30T07:24:57;98110.31;;;1.30;100.00
17635;BME280;8936;49.010;12.120;2023-01-30T07:27:24;98105.84;;;1.24;100.00
17635;BME280;8936;49.010;12.120;2023-01-30T07:33:23;98089.03;;;1.25;100.00
17635;BME280;8936;49.010;12.120;2023-01-30T07:46:58;98062.94;;;1.36;100.00
17635;BME280;8936;49.010;12.120;2023-01-30T07:49:26;98071.66;;;1.37;100.00
17635;BME280;8936;49.010;12.120;2023-01-30T07:55:01;98066.63;;;1.42;100.00
17635;BME280;8936;49.010;12.120;2023-01-30T07:58:16;98066.78;;;1.34;100.00
17635;BME280;8936;49.010;12.120;2023-01-30T08:01:20;98082.19;;;1.43;100.00
17635;BME280;8936;49.010;12.120;2023-01-30T08:03:47;98077.75;;;1.50;100.00
17635;BME280;8936;49.010;12.120;2023-01-30T08:06:19;98071.47;;;1.45;100.00
17635;BME280;8936;49.010;12.120;2023-01-30T08:08:46;98066.22;;;1.51;100.00
17635;BME280;8936;49.010;12.120;2023-01-30T08:11:13;98078.56;;;1.51;100.00
17635;BME280;8936;49.010;12.120;2023-01-30T08:13:40;98080.38;;;1.44;100.00
17635;BME280;8936;49.010;12.120;2023-01-30T08:16:06;98076.94;;;1.50;100.00
17635;BME280;8936;49.010;12.120;2023-01-30T08:18:34;98084.44;;;1.59;100.00
17635;BME280;8936;49.010;12.120;2023-01-30T08:21:03;98082.63;;;1.60;100.00
17635;BME280;8936;49.010;12.120;2023-01-30T08:23:32;98098.00;;;1.70;100.00
17635;BME280;8936;49.010;12.120;2023-01-30T08:29:19;98085.25;;;1.60;100.00
17635;BME280;8936;49.010;12.120;2023-01-30T08:42:47;98067.66;;;1.67;100.00
17635;BME280;8936;49.010;12.120;2023-01-30T08:45:14;98049.00;;;1.69;100.00
17635;BME280;8936;49.010;12.120;2023-01-30T08:47:41;98053.44;;;1.61;100.00
17635;BME280;8936;49.010;12.120;2023-01-30T08:50:08;98052.25;;;1.57;100.00
17635;BME280;8936;49.010;12.120;2023-01-30T08:52:36;98041.69;;;1.71;100.00
17635;BME280;8936;49.010;12.120;2023-01-30T08:55:06;98047.19;;;1.56;100.00
17635;BME280;8936;49.010;12.120;2023-01-30T08:57:33;98036.84;;;1.61;100.00
17635;BME280;8936;49.010;12.120;2023-01-30T09:00:03;98032.38;;;1.55;100.00
17635;BME280;8936;49.010;12.120;2023-01-30T09:02:30;98017.41;;;1.62;100.00
17635;BME280;8936;49.010;12.120;2023-01-30T09:04:57;98017.81;;;1.52;100.00
17635;BME280;8936;49.010;12.120;2023-01-30T09:07:24;98017.00;;;1.72;100.00
17635;BME280;8936;49.010;12.120;2023-01-30T09:09:55;98012.16;;;1.75;100.00
17635;BME280;8936;49.010;12.120;2023-01-30T09:12:23;98005.81;;;1.89;100.00
17635;BME280;8936;49.010;12.120;2023-01-30T09:14:50;98004.84;;;1.71;100.00
17635;BME280;8936;49.010;12.120;2023-01-30T09:17:18;97989.28;;;1.69;100.00
17635;BME280;8936;49.010;12.120;2023-01-30T09:19:45;97991.47;;;1.79;100.00
17635;BME280;8936;49.010;12.120;2023-01-30T09:22:12;97993.31;;;1.78;100.00
17635;BME280;8936;49.010;12.120;2023-01-30T09:24:40;97979.34;;;1.71;100.00
17635;BME280;8936;49.010;12.120;2023-01-30T09:27:12;97968.38;;;1.74;100.00
17635;BME280;8936;49.010;12.120;2023-01-30T09:29:39;97960.66;;;1.86;100.00
17635;BME280;8936;49.010;12.120;2023-01-30T09:32:06;97962.69;;;1.97;100.00
17635;BME280;8936;49.010;12.120;2023-01-30T09:34:34;97974.84;;;1.91;100.00
17635;BME280;8936;49.010;12.120;2023-01-30T09:40:20;97963.28;;;1.99;100.00
17635;BME280;8936;49.010;12.120;2023-01-30T09:43:01;97954.97;;;1.95;100.00
17635;BME280;8936;49.010;12.120;2023-01-30T09:45:34;97949.34;;;1.92;100.00
17635;BME280;8936;49.010;12.120;2023-01-30T09:48:05;97955.38;;;1.92;100.00
17635;BME280;8936;49.010;12.120;2023-01-30T09:50:41;97957.00;;;1.93;100.00
17635;BME280;8936;49.010;12.120;2023-01-30T09:53:21;97939.59;;;1.92;100.00
17635;BME280;8936;49.010;12.120;2023-01-30T09:59:46;97934.72;;;1.96;100.00
17635;BME280;8936;49.010;12.120;2023-01-30T10:02:13;97936.53;;;1.95;100.00
17635;BME280;8936;49.010;12.120;2023-01-30T10:05:13;97938.75;;;1.98;100.00
17635;BME280;8936;49.010;12.120;2023-01-30T10:11:40;97925.78;;;2.03;100.00
17635;BME280;8936;49.010;12.120;2023-01-30T10:14:13;97922.31;;;2.09;100.00
17635;BME280;8936;49.010;12.120;2023-01-30T10:16:46;97915.66;;;2.00;100.00
17635;BME280;8936;49.010;12.120;2023-01-30T10:19:36;97915.03;;;1.98;100.00
17635;BME280;8936;49.010;12.120;2023-01-30T10:22:07;97918.06;;;2.08;100.00
17635;BME280;8936;49.010;12.120;2023-01-30T10:24:41;97922.72;;;2.13;100.00
17635;BME280;8936;49.010;12.120;2023-01-30T10:27:13;97920.09;;;2.13;100.00
17635;BME280;8936;49.010;12.120;2023-01-30T10:29:42;97909.13;;;2.16;100.00
17635;BME280;8936;49.010;12.120;2023-01-30T10:32:14;97918.69;;;2.04;100.00
17635;BME280;8936;49.010;12.120;2023-01-30T10:34:42;97924.53;;;2.12;100.00
17635;BME280;8936;49.010;12.120;2023-01-30T10:43:53;97910.34;;;2.13;100.00
17635;BME280;8936;49.010;12.120;2023-01-30T10:46:27;97920.91;;;2.13;100.00
17635;BME280;8936;49.010;12.120;2023-01-30T10:49:10;97903.47;;;2.06;100.00
17635;BME280;8936;49.010;12.120;2023-01-30T10:51:43;97900.38;;;2.22;100.00
17635;BME280;8936;49.010;12.120;2023-01-30T10:54:13;97898.97;;;2.20;100.00
17635;BME280;8936;49.010;12.120;2023-01-30T10:56:46;97897.81;;;2.02;100.00
17635;BME280;8936;49.010;12.120;2023-01-30T10:59:27;97890.47;;;2.17;100.00
17635;BME280;8936;49.010;12.120;2023-01-30T11:02:03;97896.53;;;2.18;100.00
17635;BME280;8936;49.010;12.120;2023-01-30T11:04:41;97894.47;;;2.27;100.00
17635;BME280;8936;49.010;12.120;2023-01-30T11:07:16;97886.00;;;2.18;100.00
17635;BME280;8936;49.010;12.120;2023-01-30T11:09:44;97883.78;;;2.15;100.00
17635;BME280;8936;49.010;12.120;2023-01-30T11:12:11;97881.75;;;2.10;100.00
17635;BME280;8936;49.010;12.120;2023-01-30T11:14:52;97880.75;;;2.11;100.00
17635;BME280;8936;49.010;12.120;2023-01-30T11:17:20;97880.31;;;2.21;100.00
17635;BME280;8936;49.010;12.120;2023-01-30T11:19:53;97885.19;;;2.17;100.00
17635;BME280;8936;49.010;12.120;2023-01-30T11:22:25;97883.53;;;2.23;100.00
17635;BME280;8936;49.010;12.120;2023-01-30T11:24:59;97880.34;;;2.14;100.00
17635;BME280;8936;49.010;12.120;2023-01-30T11:27:27;97883.94;;;2.27;100.00
17635;BME280;8936;49.010;12.120;2023-01-30T11:30:03;97868.97;;;2.21;100.00
17635;BME280;8936;49.010;12.120;2023-01-30T11:32:33;97864.13;;;2.17;100.00
17635;BME280;8936;49.010;12.120;2023-01-30T11:37:50;97850.53;;;2.21;100.00
17635;BME280;8936;49.010;12.120;2023-01-30T11:40:25;97854.34;;;2.25;100.00
17635;BME280;8936;49.010;12.120;2023-01-30T11:42:58;97841.44;;;2.16;100.00
17635;BME280;8936;49.010;12.120;2023-01-30T11:46:02;97851.25;;;2.34;100.00
17635;BME280;8936;49.010;12.120;2023-01-30T11:48:30;97839.00;;;2.15;100.00
17635;BME280;8936;49.010;12.120;2023-01-30T11:51:02;97847.44;;;2.30;100.00
17635;BME280;8936;49.010;12.120;2023-01-30T11:53:31;97864.91;;;2.25;100.00
17635;BME280;8936;49.010;12.120;2023-01-30T11:55:59;97856.75;;;2.26;100.00
17635;BME280;8936;49.010;12.120;2023-01-30T11:58:30;97854.78;;;2.22;100.00
17635;BME280;8936;49.010;12.120;2023-01-30T12:01:03;97848.69;;;2.21;100.00
17635;BME280;8936;49.010;12.120;2023-01-30T12:03:31;97849.53;;;2.15;100.00
17635;BME280;8936;49.010;12.120;2023-01-30T12:06:05;97851.06;;;2.29;100.00
17635;BME280;8936;49.010;12.120;2023-01-30T12:08:37;97855.38;;;2.24;100.00
17635;BME280;8936;49.010;12.120;2023-01-30T12:13:49;97844.97;;;2.35;100.00
17635;BME280;8936;49.010;12.120;2023-01-30T12:16:20;97842.97;;;2.31;100.00
17635;BME280;8936;49.010;12.120;2023-01-30T12:18:51;97827.69;;;2.39;100.00
17635;BME280;8936;49.010;12.120;2023-01-30T12:21:31;97838.50;;;2.31;100.00
17635;BME280;8936;49.010;12.120;2023-01-30T12:24:12;97836.25;;;2.35;100.00
17635;BME280;8936;49.010;12.120;2023-01-30T12:26:44;97842.53;;;2.34;100.00
17635;BME280;8936;49.010;12.120;2023-01-30T12:29:23;97832.84;;;2.28;100.00
17635;BME280;8936;49.010;12.120;2023-01-30T12:32:03;97818.09;;;2.20;100.00
17635;BME280;8936;49.010;12.120;2023-01-30T12:34:32;97824.56;;;2.24;100.00
17635;BME280;8936;49.010;12.120;2023-01-30T12:37:03;97814.25;;;2.23;100.00
17635;BME280;8936;49.010;12.120;2023-01-30T12:39:41;97828.44;;;2.22;100.00
17635;BME280;8936;49.010;12.120;2023-01-30T12:42:19;97817.84;;;2.28;100.00
17635;BME280;8936;49.010;12.120;2023-01-30T12:45:10;97815.22;;;2.28;100.00
17635;BME280;8936;49.010;12.120;2023-01-30T12:51:03;97815.75;;;2.37;100.00
17635;BME280;8936;49.010;12.120;2023-01-30T12:53:34;97827.00;;;2.26;100.00
17635;BME280;8936;49.010;12.120;2023-01-30T12:59:17;97835.44;;;2.34;100.00
17635;BME280;8936;49.010;12.120;2023-01-30T13:01:51;97849.59;;;2.40;100.00
17635;BME280;8936;49.010;12.120;2023-01-30T13:04:24;97849.88;;;2.32;100.00
17635;BME280;8936;49.010;12.120;2023-01-30T13:07:00;97846.19;;;2.33;100.00
17635;BME280;8936;49.010;12.120;2023-01-30T13:09:44;97849.00;;;2.38;100.00
17635;BME280;8936;49.010;12.120;2023-01-30T13:12:22;97845.59;;;2.31;100.00
17635;BME280;8936;49.010;12.120;2023-01-30T13:14:58;97848.00;;;2.32;100.00
17635;BME280;8936;49.010;12.120;2023-01-30T13:17:43;97846.19;;;2.33;100.00
17635;BME280;8936;49.010;12.120;2023-01-30T13:20:15;97859.13;;;2.41;100.00
17635;BME280;8936;49.010;12.120;2023-01-30T13:22:48;97871.28;;;2.42;100.00
17635;BME280;8936;49.010;12.120;2023-01-30T13:25:19;97861.34;;;2.44;100.00
17635;BME280;8936;49.010;12.120;2023-01-30T13:27:52;97859.34;;;2.39;100.00
17635;BME280;8936;49.010;12.120;2023-01-30T13:30:21;97875.09;;;2.46;100.00
17635;BME280;8936;49.010;12.120;2023-01-30T13:32:53;97873.72;;;2.43;100.00
17635;BME280;8936;49.010;12.120;2023-01-30T13:35:26;97879.19;;;2.42;100.00
17635;BME280;8936;49.010;12.120;2023-01-30T13:37:55;97872.91;;;2.43;100.00
17635;BME280;8936;49.010;12.120;2023-01-30T13:40:29;97869.25;;;2.44;100.00
17635;BME280;8936;49.010;12.120;2023-01-30T13:43:03;97856.66;;;2.46;100.00
17635;BME280;8936;49.010;12.120;2023-01-30T13:45:39;97847.81;;;2.34;100.00
17635;BME280;8936;49.010;12.120;2023-01-30T13:48:22;97851.47;;;2.33;100.00
17635;BME280;8936;49.010;12.120;2023-01-30T13:50:57;97849.44;;;2.35;100.00
17635;BME280;8936;49.010;12.120;2023-01-30T13:53:28;97859.09;;;2.47;100.00
17635;BME280;8936;49.010;12.120;2023-01-30T13:56:04;97869.25;;;2.44;100.00
17635;BME280;8936;49.010;12.120;2023-01-30T13:58:39;97863.97;;;2.44;100.00
17635;BME280;8936;49.010;12.120;2023-01-30T14:01:10;97859.88;;;2.48;100.00
17635;BME280;8936;49.010;12.120;2023-01-30T14:03:43;97844.91;;;2.42;100.00
17635;BME280;8936;49.010;12.120;2023-01-30T14:06:27;97836.38;;;2.46;100.00
17635;BME280;8936;49.010;12.120;2023-01-30T14:12:34;97849.25;;;2.61;100.00
17635;BME280;8936;49.010;12.120;2023-01-30T14:15:24;97848.19;;;2.68;100.00
17635;BME280;8936;49.010;12.120;2023-01-30T14:23:37;97857.94;;;2.68;100.00
17635;BME280;8936;49.010;12.120;2023-01-30T14:26:08;97857.50;;;2.71;100.00
17635;BME280;8936;49.010;12.120;2023-01-30T14:28:45;97850.06;;;2.61;100.00
17635;BME280;8936;49.010;12.120;2023-01-30T14:37:49;97854.72;;;2.66;100.00
17635;BME280;8936;49.010;12.120;2023-01-30T14:40:27;97855.28;;;2.68;100.00
17635;BME280;8936;49.010;12.120;2023-01-30T14:46:37;97869.28;;;2.68;100.00
17635;BME280;8936;49.010;12.120;2023-01-30T14:55:56;97893.22;;;2.67;100.00
17635;BME280;8936;49.010;12.120;2023-01-30T14:58:24;97883.00;;;2.77;100.00
17635;BME280;8936;49.010;12.120;2023-01-30T15:00:54;97877.94;;;2.76;100.00
17635;BME280;8936;49.010;12.120;2023-01-30T15:03:26;97892.56;;;2.78;100.00
17635;BME280;8936;49.010;12.120;2023-01-30T15:05:58;97899.84;;;2.76;100.00
17635;BME280;8936;49.010;12.120;2023-01-30T15:08:40;97907.81;;;2.69;100.00
17635;BME280;8936;49.010;12.120;2023-01-30T15:11:24;97910.09;;;2.66;100.00
17635;BME280;8936;49.010;12.120;2023-01-30T15:14:18;97919.78;;;2.72;100.00
17635;BME280;8936;49.010;12.120;2023-01-30T15:17:04;97923.84;;;2.68;100.00
17635;BME280;8936;49.010;12.120;2023-01-30T15:22:20;97914.94;;;2.69;100.00
17635;BME280;8936;49.010;12.120;2023-01-30T15:27:33;97942.22;;;2.81;100.00
17635;BME280;8936;49.010;12.120;2023-01-30T15:32:45;97939.78;;;2.80;100.00
17635;BME280;8936;49.010;12.120;2023-01-30T15:35:22;97951.94;;;2.87;100.00
17635;BME280;8936;49.010;12.120;2023-01-30T15:37:54;97946.28;;;2.84;100.00
17635;BME280;8936;49.010;12.120;2023-01-30T15:40:43;97941.19;;;2.82;100.00
17635;BME280;8936;49.010;12.120;2023-01-30T15:50:11;97941.19;;;2.82;100.00
17635;BME280;8936;49.010;12.120;2023-01-30T15:54:09;97936.34;;;2.79;100.00
17635;BME280;8936;49.010;12.120;2023-01-30T15:57:21;97955.19;;;2.83;100.00
17635;BME280;8936;49.010;12.120;2023-01-30T15:59:54;97951.00;;;2.75;100.00
17635;BME280;8936;49.010;12.120;2023-01-30T16:02:27;97977.38;;;2.75;100.00
17635;BME280;8936;49.010;12.120;2023-01-30T16:05:14;97986.22;;;2.87;100.00
17635;BME280;8936;49.010;12.120;2023-01-30T16:07:45;97987.81;;;2.88;100.00
17635;BME280;8936;49.010;12.120;2023-01-30T16:10:18;97986.63;;;2.84;100.00
17635;BME280;8936;49.010;12.120;2023-01-30T16:12:49;97987.81;;;2.88;100.00
17635;BME280;8936;49.010;12.120;2023-01-30T16:15:26;97990.69;;;2.87;100.00
17635;BME280;8936;49.010;12.120;2023-01-30T16:19:07;97995.13;;;2.86;100.00
17635;BME280;8936;49.010;12.120;2023-01-30T16:21:51;98002.63;;;2.89;100.00
17635;BME280;8936;49.010;12.120;2023-01-30T16:25:22;98012.97;;;2.91;100.00
17635;BME280;8936;49.010;12.120;2023-01-30T16:27:55;98005.28;;;2.83;100.00
17635;BME280;8936;49.010;12.120;2023-01-30T16:30:28;98012.50;;;3.00;100.00
17635;BME280;8936;49.010;12.120;2023-01-30T16:32:55;98021.69;;;2.91;100.00
17635;BME280;8936;49.010;12.120;2023-01-30T16:35:27;98024.53;;;2.90;100.00
17635;BME280;8936;49.010;12.120;2023-01-30T16:37:57;98034.88;;;2.91;100.00
17635;BME280;8936;49.010;12.120;2023-01-30T16:40:29;98037.09;;;2.94;100.00
17635;BME280;8936;49.010;12.120;2023-01-30T16:43:16;98036.66;;;2.97;100.00
17635;BME280;8936;49.010;12.120;2023-01-30T16:46:03;98049.84;;;2.97;100.00
17635;BME280;8936;49.010;12.120;2023-01-30T16:48:54;98043.97;;;2.95;100.00
17635;BME280;8936;49.010;12.120;2023-01-30T16:51:30;98041.78;;;2.92;100.00
17635;BME280;8936;49.010;12.120;2023-01-30T16:54:01;98053.53;;;2.96;100.00
17635;BME280;8936;49.010;12.120;2023-01-30T16:56:33;98072.75;;;3.03;100.00
17635;BME280;8936;49.010;12.120;2023-01-30T16:59:11;98062.03;;;2.98;100.00
17635;BME280;8936;49.010;12.120;2023-01-30T17:01:47;98051.91;;;2.95;100.00
17635;BME280;8936;49.010;12.120;2023-01-30T17:04:23;98063.66;;;2.99;100.00
17635;BME280;8936;49.010;12.120;2023-01-30T17:06:54;98068.13;;;2.99;100.00
17635;BME280;8936;49.010;12.120;2023-01-30T17:09:39;98064.66;;;2.98;100.00
17635;BME280;8936;49.010;12.120;2023-01-30T17:17:47;98064.25;;;3.01;100.00
17635;BME280;8936;49.010;12.120;2023-01-30T17:20:17;98053.06;;;3.06;100.00
17635;BME280;8936;49.010;12.120;2023-01-30T17:22:44;98044.13;;;3.07;100.00
17635;BME280;8936;49.010;12.120;2023-01-30T17:25:24;98057.97;;;3.02;100.00
17635;BME280;8936;49.010;12.120;2023-01-30T17:28:03;98072.34;;;3.06;100.00
17635;BME280;8936;49.010;12.120;2023-01-30T17:30:41;98067.31;;;2.98;100.00
17635;BME280;8936;49.010;12.120;2023-01-30T17:33:10;98084.97;;;2.98;100.00
17635;BME280;8936;49.010;12.120;2023-01-30T17:35:40;98078.66;;;3.05;100.00
17635;BME280;8936;49.010;12.120;2023-01-30T17:38:10;98075.78;;;3.07;100.00
17635;BME280;8936;49.010;12.120;2023-01-30T17:40:38;98073.16;;;3.00;100.00
17635;BME280;8936;49.010;12.120;2023-01-30T17:43:08;98078.84;;;3.04;100.00
17635;BME280;8936;49.010;12.120;2023-01-30T17:45:44;98091.28;;;2.97;100.00
17635;BME280;8936;49.010;12.120;2023-01-30T17:48:16;98085.31;;;3.08;100.00
17635;BME280;8936;49.010;12.120;2023-01-30T17:50:44;98104.59;;;3.08;100.00
17635;BME280;8936;49.010;12.120;2023-01-30T17:53:11;98101.53;;;3.11;100.00
17635;BME280;8936;49.010;12.120;2023-01-30T17:56:31;98111.09;;;3.12;100.00
17635;BME280;8936;49.010;12.120;2023-01-30T17:59:04;98108.66;;;3.04;100.00
17635;BME280;8936;49.010;12.120;2023-01-30T18:01:41;98097.69;;;3.07;100.00
17635;BME280;8936;49.010;12.120;2023-01-30T18:04:12;98105.41;;;3.09;100.00
17635;BME280;8936;49.010;12.120;2023-01-30T18:06:40;98115.88;;;3.22;100.00
17635;BME280;8936;49.010;12.120;2023-01-30T18:09:10;98121.41;;;3.14;100.00
17635;BME280;8936;49.010;12.120;2023-01-30T18:11:39;98114.50;;;3.13;100.00
17635;BME280;8936;49.010;12.120;2023-01-30T18:14:09;98113.31;;;3.15;100.00
17635;BME280;8936;49.010;12.120;2023-01-30T18:16:36;98111.25;;;3.17;100.00
17635;BME280;8936;49.010;12.120;2023-01-30T18:19:04;98107.44;;;3.07;100.00
17635;BME280;8936;49.010;12.120;2023-01-30T18:21:41;98110.47;;;3.10;100.00
17635;BME280;8936;49.010;12.120;2023-01-30T18:24:17;98095.25;;;3.12;100.00
17635;BME280;8936;49.010;12.120;2023-01-30T18:26:44;98102.75;;;3.15;100.00
17635;BME280;8936;49.010;12.120;2023-01-30T18:29:22;98091.16;;;3.16;100.00
17635;BME280;8936;49.010;12.120;2023-01-30T18:31:58;98100.13;;;3.15;100.00
17635;BME280;8936;49.010;12.120;2023-01-30T18:34:36;98082.25;;;3.11;100.00
17635;BME280;8936;49.010;12.120;2023-01-30T18:37:04;98108.19;;;3.20;100.00
17635;BME280;8936;49.010;12.120;2023-01-30T18:39:32;98113.06;;;3.23;100.00
17635;BME280;8936;49.010;12.120;2023-01-30T18:42:13;98104.16;;;3.18;100.00
17635;BME280;8936;49.010;12.120;2023-01-30T18:44:44;98116.66;;;3.29;100.00
17635;BME280;8936;49.010;12.120;2023-01-30T18:47:20;98130.31;;;3.19;100.00
17635;BME280;8936;49.010;12.120;2023-01-30T18:49:48;98145.94;;;3.28;100.00
17635;BME280;8936;49.010;12.120;2023-01-30T18:52:30;98147.19;;;3.18;100.00